Time;durP1;ratioP1;P1;durP2;ratioP2;P2;SDS_P1;SDS_P2;PMS_P1;PMS_P2;Temp;Humidity;BMP_temperature;BMP_pressure;BME280_temperature;BME280_humidity;BME280_pressure;Samples;Min_cycle;Max_cycle;Signal;HPM_P1;HPM_P2
2022/09/02 00:01:27;;;;;;;2.88;0.85;;;16.80;55.30;;;;;;4974556;28;20287;-71
2022/09/02 00:03:57;;;;;;;3.03;0.90;;;16.80;55.20;;;;;;4974287;28;20476;-71
2022/09/02 00:06:25;;;;;;;3.80;1.00;;;16.80;55.20;;;;;;4973738;28;20046;-71
2022/09/02 00:08:52;;;;;;;2.30;0.70;;;16.80;55.20;;;;;;4991496;28;20142;-71
2022/09/02 00:11:21;;;;;;;3.67;1.00;;;16.80;55.20;;;;;;4991800;28;20061;-71
2022/09/02 00:13:49;;;;;;;4.18;0.90;;;16.70;55.20;;;;;;4990811;28;20277;-71
2022/09/02 00:16:17;;;;;;;2.45;0.70;;;16.70;55.30;;;;;;4991573;28;20051;-71
2022/09/02 00:18:47;;;;;;;3.30;1.00;;;16.70;55.30;;;;;;4972065;28;20055;-71
2022/09/02 00:21:15;;;;;;;2.92;0.90;;;16.60;55.50;;;;;;4974100;28;20431;-71
2022/09/02 00:23:43;;;;;;;3.80;1.13;;;16.60;55.50;;;;;;4974190;28;20067;-71
2022/09/02 00:26:11;;;;;;;2.63;0.90;;;16.50;55.60;;;;;;4991274;28;20282;-71
2022/09/02 00:28:38;;;;;;;3.45;1.02;;;16.50;55.70;;;;;;4991413;28;20054;-71
2022/09/02 00:31:05;;;;;;;2.30;0.80;;;16.50;55.70;;;;;;4989690;28;20090;-71
2022/09/02 00:33:32;;;;;;;4.25;0.88;;;16.50;55.70;;;;;;4989858;28;20125;-71
2022/09/02 00:36:01;;;;;;;2.63;0.80;;;16.50;55.70;;;;;;4973515;28;20511;-71
2022/09/02 00:38:32;;;;;;;2.80;0.80;;;16.50;55.70;;;;;;4973546;28;20261;-71
2022/09/02 00:41:01;;;;;;;2.55;0.70;;;16.50;55.80;;;;;;4989600;28;20150;-71
2022/09/02 00:43:42;;;;;;;2.63;1.00;;;16.40;55.70;;;;;;4957251;28;20043;-71
2022/09/02 00:46:10;;;;;;;4.78;1.08;;;16.40;55.80;;;;;;4973542;28;20488;-71
2022/09/02 00:48:40;;;;;;;2.30;0.80;;;16.40;55.80;;;;;;4973249;28;20505;-71
2022/09/02 00:51:09;;;;;;;4.10;1.00;;;16.30;56.10;;;;;;4957167;28;20251;-71
2022/09/02 00:53:38;;;;;;;3.50;0.90;;;16.20;56.10;;;;;;4955373;28;20628;-71
2022/09/02 00:56:07;;;;;;;2.50;0.90;;;16.10;56.40;;;;;;4973526;28;20051;-71
2022/09/02 00:58:36;;;;;;;3.15;0.90;;;16.10;56.50;;;;;;4991145;28;20061;-71
2022/09/02 01:01:03;;;;;;;3.70;1.10;;;16.00;56.60;;;;;;4957526;28;20097;-71
2022/09/02 01:03:33;;;;;;;3.83;0.98;;;16.00;56.80;;;;;;4991900;28;20247;-71
2022/09/02 01:06:01;;;;;;;3.03;0.90;;;16.00;56.90;;;;;;4957589;28;20872;-71
2022/09/02 01:08:32;;;;;;;2.97;0.90;;;15.90;56.90;;;;;;4973253;28;20047;-71
2022/09/02 01:11:00;;;;;;;2.92;0.80;;;15.90;57.10;;;;;;4973536;28;20110;-71
2022/09/02 01:13:30;;;;;;;3.00;1.00;;;15.80;57.30;;;;;;4989349;28;20047;-71
2022/09/02 01:16:03;;;;;;;2.38;0.90;;;15.80;57.30;;;;;;4973488;28;20285;-71
2022/09/02 01:18:31;;;;;;;2.75;1.10;;;15.80;57.40;;;;;;4973577;28;20122;-71
2022/09/02 01:20:59;;;;;;;3.33;1.00;;;15.80;57.50;;;;;;4973262;28;20167;-71
2022/09/02 01:23:29;;;;;;;5.68;1.00;;;15.70;57.60;;;;;;4973031;28;20137;-71
2022/09/02 01:25:57;;;;;;;4.43;1.10;;;15.70;57.60;;;;;;4957364;28;20054;-71
2022/09/02 01:28:25;;;;;;;3.35;1.00;;;15.60;57.60;;;;;;4992622;28;20271;-71
2022/09/02 01:30:54;;;;;;;2.38;0.90;;;15.60;57.70;;;;;;4976153;28;20050;-71
2022/09/02 01:33:23;;;;;;;2.92;0.90;;;15.70;57.80;;;;;;4960344;28;20137;-71
2022/09/02 01:35:50;;;;;;;3.13;1.10;;;15.70;57.70;;;;;;4994261;28;20145;-71
2022/09/02 01:38:19;;;;;;;3.10;1.00;;;15.70;57.70;;;;;;4960671;28;20110;-71
2022/09/02 01:40:47;;;;;;;3.25;1.13;;;15.70;57.60;;;;;;4975778;28;20289;-71
2022/09/02 01:43:21;;;;;;;2.95;1.00;;;15.60;57.90;;;;;;4960071;28;20055;-71
2022/09/02 01:45:51;;;;;;;2.95;0.98;;;15.60;57.90;;;;;;4976120;28;20053;-71
2022/09/02 01:48:19;;;;;;;3.22;1.10;;;15.60;57.90;;;;;;4976339;28;20058;-71
2022/09/02 01:50:50;;;;;;;2.83;0.80;;;15.60;58.00;;;;;;4976324;28;20046;-71
2022/09/02 01:53:18;;;;;;;3.45;1.10;;;15.60;58.00;;;;;;4976092;28;20366;-71
2022/09/02 01:55:47;;;;;;;2.92;0.85;;;15.60;58.00;;;;;;4976474;28;20133;-71
2022/09/02 01:58:14;;;;;;;3.22;1.00;;;15.50;58.00;;;;;;4974523;28;20051;-71
2022/09/02 02:00:41;;;;;;;4.35;1.17;;;15.50;58.00;;;;;;4975471;28;20058;-70
2022/09/02 02:03:08;;;;;;;2.90;1.00;;;15.50;58.20;;;;;;4960227;28;20605;-71
2022/09/02 02:05:35;;;;;;;2.40;0.85;;;15.40;58.30;;;;;;4991699;28;20863;-71
2022/09/02 02:08:04;;;;;;;2.42;0.98;;;15.40;58.30;;;;;;4976212;28;20066;-71
2022/09/02 02:10:32;;;;;;;2.70;1.10;;;15.40;58.50;;;;;;4975501;28;20051;-71
2022/09/02 02:13:01;;;;;;;4.30;0.90;;;15.40;58.40;;;;;;4993508;28;20051;-71
2022/09/02 02:15:31;;;;;;;3.00;1.23;;;15.40;58.50;;;;;;4975523;28;20056;-71
2022/09/02 02:17:58;;;;;;;3.15;1.10;;;15.40;58.40;;;;;;4975420;28;20247;-71
2022/09/02 02:20:25;;;;;;;3.20;1.10;;;15.40;58.50;;;;;;4975497;28;20051;-71
2022/09/02 02:22:53;;;;;;;2.63;1.00;;;15.40;58.40;;;;;;4959335;28;20043;-71
2022/09/02 02:25:20;;;;;;;3.10;0.90;;;15.40;58.40;;;;;;4975510;28;20102;-71
2022/09/02 02:27:50;;;;;;;3.33;1.27;;;15.40;58.30;;;;;;4975314;28;20057;-71
2022/09/02 02:30:18;;;;;;;4.88;1.20;;;15.40;58.30;;;;;;4973195;28;20258;-71
2022/09/02 02:32:46;;;;;;;3.95;1.30;;;15.30;58.60;;;;;;4991601;28;20599;-71
2022/09/02 02:35:17;;;;;;;3.63;0.85;;;15.20;58.60;;;;;;4959156;28;20054;-71
2022/09/02 02:37:47;;;;;;;4.63;1.40;;;15.20;58.70;;;;;;4992672;28;20093;-71
2022/09/02 02:40:15;;;;;;;2.87;1.10;;;15.20;58.80;;;;;;4991433;28;20141;-71
2022/09/02 02:42:42;;;;;;;26.50;3.00;;;15.20;59.00;;;;;;4975229;28;20282;-71
2022/09/02 02:45:11;;;;;;;5.05;1.50;;;15.10;59.00;;;;;;4975058;28;20515;-71
2022/09/02 02:47:41;;;;;;;3.33;1.10;;;15.00;59.10;;;;;;4975584;28;20429;-71
2022/09/02 02:50:11;;;;;;;3.67;1.33;;;15.00;59.10;;;;;;4974947;28;20154;-71
2022/09/02 02:52:39;;;;;;;3.40;1.20;;;15.00;59.20;;;;;;4958486;28;20070;-71
2022/09/02 02:55:09;;;;;;;2.85;1.15;;;15.00;59.10;;;;;;4975027;28;20271;-71
2022/09/02 02:57:37;;;;;;;3.05;1.30;;;15.00;59.10;;;;;;4957477;28;20051;-71
2022/09/02 03:00:07;;;;;;;3.63;1.10;;;15.00;59.20;;;;;;4989784;28;20065;-71
2022/09/02 03:02:34;;;;;;;2.88;1.13;;;15.00;59.30;;;;;;4957443;28;20047;-71
2022/09/02 03:05:03;;;;;;;2.97;1.10;;;15.00;59.20;;;;;;4954974;28;20047;-71
2022/09/02 03:07:30;;;;;;;3.55;1.10;;;15.00;59.30;;;;;;4957153;28;20351;-71
2022/09/02 03:09:57;;;;;;;3.97;1.30;;;14.90;59.30;;;;;;4957150;28;20199;-71
2022/09/02 03:12:25;;;;;;;2.90;1.20;;;14.90;59.30;;;;;;4974269;28;20482;-71
2022/09/02 03:14:52;;;;;;;3.00;1.17;;;14.90;59.40;;;;;;4992478;28;20109;-71
2022/09/02 03:17:20;;;;;;;3.37;1.10;;;14.90;59.50;;;;;;4991169;28;20059;-71
2022/09/02 03:19:49;;;;;;;3.92;1.42;;;14.90;59.70;;;;;;4992380;28;20334;-71
2022/09/02 03:22:18;;;;;;;3.42;1.08;;;14.90;59.70;;;;;;4974739;28;20154;-71
2022/09/02 03:24:45;;;;;;;3.47;1.40;;;14.80;59.70;;;;;;4975034;28;20064;-71
2022/09/02 03:27:13;;;;;;;4.07;1.20;;;14.80;59.70;;;;;;4990968;28;20055;-71
2022/09/02 03:29:40;;;;;;;4.43;1.30;;;14.80;59.80;;;;;;4990922;28;21024;-71
2022/09/02 03:32:07;;;;;;;3.25;1.30;;;14.80;59.80;;;;;;4974572;28;20605;-71
2022/09/02 03:34:34;;;;;;;3.42;1.30;;;14.80;59.90;;;;;;4975134;28;20098;-71
2022/09/02 03:37:01;;;;;;;3.35;1.30;;;14.80;59.90;;;;;;4971808;28;20129;-71
2022/09/02 03:39:29;;;;;;;3.53;1.30;;;14.70;60.10;;;;;;4974647;28;20057;-71
2022/09/02 03:41:56;;;;;;;3.67;1.40;;;14.70;60.30;;;;;;4990314;28;20174;-70
2022/09/02 03:44:23;;;;;;;2.95;1.48;;;14.60;60.20;;;;;;4958411;28;20363;-71
2022/09/02 03:46:50;;;;;;;3.38;1.13;;;14.60;60.50;;;;;;4990590;28;20058;-71
2022/09/02 03:49:17;;;;;;;3.50;1.50;;;14.50;60.50;;;;;;4973806;28;20137;-71
2022/09/02 03:51:44;;;;;;;3.08;1.35;;;14.50;60.50;;;;;;4991622;28;20058;-71
2022/09/02 03:54:12;;;;;;;3.90;1.40;;;14.50;60.70;;;;;;4974268;28;20097;-71
2022/09/02 03:56:41;;;;;;;3.55;1.42;;;14.50;60.70;;;;;;4974292;28;20358;-71
2022/09/02 03:59:09;;;;;;;4.05;1.30;;;14.50;60.70;;;;;;4974124;28;20122;-71
2022/09/02 04:01:36;;;;;;;3.50;1.33;;;14.50;60.80;;;;;;4974045;28;20061;-71
2022/09/02 04:04:05;;;;;;;4.10;1.55;;;14.50;60.80;;;;;;4974475;28;20495;-71
2022/09/02 04:06:33;;;;;;;3.00;1.40;;;14.50;60.70;;;;;;4957673;28;20082;-71
2022/09/02 04:09:02;;;;;;;3.13;1.55;;;14.50;60.70;;;;;;4972260;28;20397;-71
2022/09/02 04:11:29;;;;;;;3.45;1.40;;;14.50;60.70;;;;;;4974136;28;20042;-71
2022/09/02 04:13:58;;;;;;;3.50;1.60;;;14.50;60.80;;;;;;4974104;28;20054;-70
2022/09/02 04:16:27;;;;;;;3.70;1.50;;;14.50;60.90;;;;;;4973879;28;20145;-71
2022/09/02 04:19:00;;;;;;;3.53;1.50;;;14.50;60.80;;;;;;4973337;28;20109;-71
2022/09/02 04:21:28;;;;;;;3.85;1.42;;;14.40;60.90;;;;;;4973859;28;20286;-71
2022/09/02 04:23:56;;;;;;;3.53;1.50;;;14.40;61.10;;;;;;4973733;28;20583;-71
2022/09/02 04:26:24;;;;;;;3.50;1.40;;;14.40;61.00;;;;;;4973830;28;20063;-71
2022/09/02 04:28:54;;;;;;;3.45;1.58;;;14.40;61.20;;;;;;4973702;28;20074;-71
2022/09/02 04:31:25;;;;;;;3.77;1.40;;;14.30;61.20;;;;;;4989456;28;20057;-71
2022/09/02 04:33:55;;;;;;;3.58;1.48;;;14.30;61.50;;;;;;4957903;28;20290;-71
2022/09/02 04:36:23;;;;;;;2.92;1.40;;;14.30;61.50;;;;;;4989945;28;20050;-71
2022/09/02 04:38:53;;;;;;;3.40;1.40;;;14.20;61.60;;;;;;4957539;28;20564;-70
2022/09/02 04:41:25;;;;;;;3.10;1.40;;;14.20;61.80;;;;;;4989933;28;20051;-71
2022/09/02 04:43:56;;;;;;;3.30;1.40;;;14.20;61.80;;;;;;4954675;28;20133;-71
2022/09/02 04:46:27;;;;;;;2.92;1.30;;;14.10;62.00;;;;;;4956726;28;21073;-71
2022/09/02 04:48:56;;;;;;;3.22;1.40;;;14.10;62.10;;;;;;4973199;28;20054;-71
2022/09/02 04:51:25;;;;;;;3.38;1.40;;;14.10;62.20;;;;;;4956960;28;20050;-71
2022/09/02 04:53:55;;;;;;;2.95;1.33;;;14.00;62.20;;;;;;4956883;28;20497;-71
2022/09/02 04:56:26;;;;;;;3.40;1.53;;;14.00;62.30;;;;;;4973618;28;20042;-71
2022/09/02 04:58:53;;;;;;;3.05;1.60;;;14.00;62.30;;;;;;4954368;28;20263;-71
2022/09/02 05:01:24;;;;;;;4.32;1.48;;;14.00;62.60;;;;;;4937859;28;20051;-71
2022/09/02 05:03:53;;;;;;;4.65;1.52;;;14.00;62.50;;;;;;4959831;28;20056;-70
2022/09/02 05:06:26;;;;;;;3.28;1.40;;;13.90;62.50;;;;;;4953823;28;21147;-70
2022/09/02 05:08:57;;;;;;;3.17;1.50;;;14.00;62.60;;;;;;4937407;28;20052;-70
2022/09/02 05:11:28;;;;;;;4.05;1.52;;;13.90;62.80;;;;;;4969810;28;20260;-70
2022/09/02 05:13:57;;;;;;;3.33;1.48;;;13.90;63.00;;;;;;4953598;28;20056;-70
2022/09/02 05:16:27;;;;;;;4.28;1.48;;;13.90;63.20;;;;;;4955137;28;20102;-71
2022/09/02 05:18:58;;;;;;;3.95;1.52;;;13.90;63.20;;;;;;4976011;28;20047;-71
2022/09/02 05:21:30;;;;;;;50.20;5.67;;;13.90;63.40;;;;;;4976502;28;20047;-71
2022/09/02 05:23:58;;;;;;;4.78;1.90;;;13.80;63.70;;;;;;4945011;28;20278;-71
2022/09/02 05:26:26;;;;;;;13.20;2.72;;;13.70;64.00;;;;;;4959472;28;20051;-71
2022/09/02 05:28:53;;;;;;;9.02;1.73;;;13.70;64.10;;;;;;4939837;28;20075;-71
2022/09/02 05:31:21;;;;;;;5.13;1.40;;;13.70;64.40;;;;;;4975366;28;20047;-72
2022/09/02 05:33:49;;;;;;;3.60;1.60;;;13.70;64.40;;;;;;4954529;28;20051;-71
2022/09/02 05:36:22;;;;;;;5.20;1.77;;;13.70;64.50;;;;;;4939509;28;21227;-70
2022/09/02 05:38:50;;;;;;;4.38;1.63;;;13.70;64.60;;;;;;4956007;28;20061;-69
2022/09/02 05:41:22;;;;;;;3.92;1.55;;;13.70;64.70;;;;;;4939582;28;20113;-71
2022/09/02 05:43:51;;;;;;;3.30;1.58;;;13.80;64.80;;;;;;4939228;28;20426;-71
2022/09/02 05:46:22;;;;;;;3.70;1.50;;;13.80;65.00;;;;;;4947317;28;20085;-71
2022/09/02 05:49:08;;;;;;;4.13;1.60;;;13.80;65.30;;;;;;4954188;28;20280;-71
2022/09/02 05:51:47;;;;;;;3.13;1.23;;;13.80;65.60;;;;;;4961660;28;20052;-71
2022/09/02 05:54:18;;;;;;;3.13;1.30;;;13.70;65.50;;;;;;4938188;28;20040;-71
2022/09/02 05:56:47;;;;;;;3.25;1.58;;;13.80;65.70;;;;;;4937947;28;20090;-71
2022/09/02 05:59:15;;;;;;;3.10;1.70;;;13.80;66.10;;;;;;4965472;28;20252;-71
2022/09/02 06:01:43;;;;;;;3.53;1.40;;;13.80;66.40;;;;;;4944497;28;20342;-71
2022/09/02 06:04:10;;;;;;;4.43;1.70;;;13.80;66.20;;;;;;4955632;28;20138;-71
2022/09/02 06:06:39;;;;;;;3.97;1.50;;;13.90;66.30;;;;;;4939973;28;20195;-70
2022/09/02 06:09:14;;;;;;;3.78;1.75;;;13.90;66.40;;;;;;4938884;28;20055;-71
2022/09/02 06:11:48;;;;;;;4.20;1.60;;;13.90;66.50;;;;;;4948809;28;20048;-71
2022/09/02 06:14:18;;;;;;;3.90;1.80;;;13.90;66.60;;;;;;4945833;28;20272;-70
2022/09/02 06:16:45;;;;;;;3.60;1.50;;;14.00;66.60;;;;;;4956228;28;20055;-71
2022/09/02 06:19:21;;;;;;;4.38;1.60;;;14.00;66.60;;;;;;4947755;28;20048;-71
2022/09/02 06:21:54;;;;;;;6.28;1.77;;;14.00;66.60;;;;;;4963734;28;20055;-72
2022/09/02 06:24:27;;;;;;;4.80;1.70;;;14.10;66.90;;;;;;4940283;28;20055;-71
2022/09/02 06:26:55;;;;;;;4.88;1.70;;;14.10;66.80;;;;;;4965260;28;20251;-71
2022/09/02 06:29:26;;;;;;;3.90;1.73;;;14.20;66.70;;;;;;4939717;28;20051;-71
2022/09/02 06:31:54;;;;;;;3.83;1.58;;;14.20;66.80;;;;;;4939500;28;20813;-71
2022/09/02 06:34:26;;;;;;;21.13;3.70;;;14.30;67.10;;;;;;4939318;28;20130;-72
2022/09/02 06:36:56;;;;;;;3.77;1.70;;;14.30;67.20;;;;;;4947904;28;20054;-71
2022/09/02 06:39:25;;;;;;;4.75;1.70;;;14.40;67.00;;;;;;4955689;28;20299;-71
2022/09/02 06:41:55;;;;;;;4.30;1.60;;;14.40;67.10;;;;;;4938944;28;20047;-71
2022/09/02 06:44:24;;;;;;;4.60;1.70;;;14.40;67.10;;;;;;4937770;28;20052;-71
2022/09/02 06:46:55;;;;;;;4.20;1.77;;;14.50;67.10;;;;;;4952829;28;20060;-71
2022/09/02 06:49:24;;;;;;;6.60;1.83;;;14.50;67.10;;;;;;4952402;28;20062;-71
2022/09/02 06:51:54;;;;;;;5.40;2.10;;;14.60;67.30;;;;;;4968609;28;20363;-71
2022/09/02 06:54:26;;;;;;;4.68;1.92;;;14.60;67.20;;;;;;4955058;28;20152;-71
2022/09/02 06:57:04;;;;;;;4.07;1.83;;;14.70;67.20;;;;;;4935804;28;20491;-71
2022/09/02 06:59:31;;;;;;;3.92;1.85;;;14.70;67.20;;;;;;4946966;28;20051;-71
2022/09/02 07:01:58;;;;;;;14.17;3.37;;;14.80;67.20;;;;;;4955032;28;20044;-70
2022/09/02 07:07:15;;;;;;;3.33;1.80;;;14.90;67.30;;;;;;4969568;28;20224;-70
2022/09/02 07:09:54;;;;;;;3.38;1.65;;;15.00;67.10;;;;;;4952147;28;20510;-71
2022/09/02 07:12:21;;;;;;;4.22;1.85;;;15.00;67.00;;;;;;4935739;28;20048;-71
2022/09/02 07:14:55;;;;;;;7.00;2.27;;;15.10;67.00;;;;;;4954961;28;20079;-70
2022/09/02 07:17:28;;;;;;;4.10;1.85;;;15.20;67.00;;;;;;4969753;28;20283;-71
2022/09/02 07:20:01;;;;;;;3.70;1.70;;;15.20;67.00;;;;;;4952856;28;20059;-71
2022/09/02 07:22:32;;;;;;;40.50;4.60;;;15.30;67.00;;;;;;4933734;28;20048;-71
2022/09/02 07:25:03;;;;;;;7.13;1.92;;;15.40;67.00;;;;;;4933831;28;20044;-71
2022/09/02 07:27:31;;;;;;;3.53;1.70;;;15.40;66.90;;;;;;4953099;28;20048;-71
2022/09/02 07:29:58;;;;;;;4.20;1.73;;;15.50;66.80;;;;;;4937255;28;20287;-71
2022/09/02 07:32:27;;;;;;;5.03;1.63;;;15.60;66.70;;;;;;4963799;28;20043;-71
2022/09/02 07:34:54;;;;;;;3.83;1.50;;;15.60;66.70;;;;;;4945840;28;20208;-72
2022/09/02 07:37:21;;;;;;;4.03;1.50;;;15.70;66.70;;;;;;4971627;28;20051;-71
2022/09/02 07:39:50;;;;;;;4.70;1.90;;;15.80;66.70;;;;;;4934577;28;20142;-71
2022/09/02 07:42:19;;;;;;;5.32;1.63;;;15.80;66.60;;;;;;4920291;28;20272;-71
2022/09/02 07:44:46;;;;;;;4.88;1.92;;;16.00;66.40;;;;;;4935878;28;20058;-71
2022/09/02 07:47:13;;;;;;;3.90;1.30;;;16.00;66.30;;;;;;4953032;28;20083;-71
2022/09/02 07:49:44;;;;;;;5.55;1.55;;;16.10;66.20;;;;;;4935479;28;20055;-72
2022/09/02 07:52:11;;;;;;;3.97;1.50;;;16.20;66.10;;;;;;4951697;28;20422;-71
2022/09/02 07:54:39;;;;;;;3.53;1.48;;;16.30;65.70;;;;;;4935774;28;20284;-72
2022/09/02 07:57:06;;;;;;;3.60;1.38;;;16.40;65.50;;;;;;4936031;28;20483;-71
2022/09/02 07:59:35;;;;;;;4.82;1.45;;;16.40;65.30;;;;;;4952632;28;20648;-71
2022/09/02 08:02:03;;;;;;;4.20;1.50;;;16.50;65.10;;;;;;4951563;28;20048;-71
2022/09/02 08:04:30;;;;;;;4.07;1.30;;;16.60;65.00;;;;;;4935934;28;20111;-71
2022/09/02 08:06:56;;;;;;;3.80;1.42;;;16.70;64.60;;;;;;4970323;28;20346;-71
2022/09/02 08:09:23;;;;;;;4.15;1.50;;;16.70;64.50;;;;;;4973996;28;20051;-71
2022/09/02 08:11:51;;;;;;;4.82;1.40;;;16.80;64.20;;;;;;4962057;28;20048;-70
2022/09/02 08:14:23;;;;;;;4.13;1.45;;;16.90;64.20;;;;;;4953798;28;20582;-70
2022/09/02 08:16:52;;;;;;;4.00;1.43;;;17.00;63.90;;;;;;4964356;28;20051;-71
2022/09/02 08:19:19;;;;;;;4.50;1.67;;;17.10;63.70;;;;;;4953855;28;20264;-71
2022/09/02 08:21:46;;;;;;;4.63;1.40;;;17.20;63.70;;;;;;4953901;28;20051;-71
2022/09/02 08:24:13;;;;;;;4.70;1.65;;;17.20;63.40;;;;;;4953683;28;20493;-71
2022/09/02 08:26:40;;;;;;;5.22;1.30;;;17.40;63.00;;;;;;4971276;28;20183;-71
2022/09/02 08:29:08;;;;;;;4.37;1.40;;;17.50;62.60;;;;;;4953624;28;20146;-71
2022/09/02 08:31:37;;;;;;;5.13;1.40;;;17.50;62.20;;;;;;4971554;28;20280;-71
2022/09/02 08:34:06;;;;;;;4.20;1.50;;;17.60;62.10;;;;;;4970153;28;20138;-71
2022/09/02 08:36:33;;;;;;;4.78;1.30;;;17.80;62.00;;;;;;4970480;28;20576;-71
2022/09/02 08:39:02;;;;;;;5.53;1.40;;;17.80;61.80;;;;;;4975807;28;20078;-71
2022/09/02 08:41:37;;;;;;;7.27;1.57;;;17.90;61.80;;;;;;4936664;28;20135;-71
2022/09/02 08:44:05;;;;;;;3.55;1.42;;;18.00;61.60;;;;;;4984360;28;20294;-71
2022/09/02 08:46:34;;;;;;;4.70;1.30;;;18.10;61.00;;;;;;4958432;28;20051;-71
2022/09/02 08:49:07;;;;;;;3.30;1.40;;;18.20;61.00;;;;;;4953502;28;20075;-71
2022/09/02 08:51:37;;;;;;;6.03;1.50;;;18.30;60.90;;;;;;4953169;28;20062;-71
2022/09/02 08:54:08;;;;;;;5.40;1.23;;;18.30;60.80;;;;;;4969553;28;20190;-71
2022/09/02 08:56:35;;;;;;;4.47;1.30;;;18.40;60.80;;;;;;4959298;28;20252;-71
2022/09/02 08:59:03;;;;;;;4.22;1.25;;;18.50;60.50;;;;;;4953102;28;20054;-71
2022/09/02 09:01:43;;;;;;;4.60;1.40;;;18.60;60.20;;;;;;4953235;28;20130;-71
2022/09/02 09:04:20;;;;;;;2.97;1.10;;;18.70;60.10;;;;;;4937005;28;20047;-71
2022/09/02 09:07:08;;;;;;;5.20;1.30;;;18.80;60.00;;;;;;4969839;28;20131;-72
2022/09/02 09:09:47;;;;;;;5.38;1.30;;;18.90;59.70;;;;;;4951285;28;20275;-72
2022/09/02 09:12:24;;;;;;;3.97;1.15;;;19.00;59.20;;;;;;4966372;28;20048;-72
2022/09/02 09:14:57;;;;;;;3.42;1.17;;;19.10;59.00;;;;;;4950499;28;20156;-72
2022/09/02 09:17:30;;;;;;;5.28;1.10;;;19.20;58.60;;;;;;4967518;28;20565;-72
2022/09/02 09:20:03;;;;;;;4.70;1.10;;;19.30;58.00;;;;;;4967516;28;20515;-72
2022/09/02 09:22:36;;;;;;;6.00;1.23;;;19.30;57.80;;;;;;4936877;28;20286;-72
2022/09/02 09:25:07;;;;;;;62.63;6.43;;;19.40;57.60;;;;;;4970022;28;20137;-72
2022/09/02 09:27:34;;;;;;;5.85;1.20;;;19.50;57.50;;;;;;4953111;28;20067;-72
2022/09/02 09:30:02;;;;;;;4.35;1.17;;;19.60;57.20;;;;;;4969948;28;20066;-72
2022/09/02 09:32:32;;;;;;;3.70;1.13;;;19.70;57.20;;;;;;4953869;28;20053;-72
2022/09/02 09:35:06;;;;;;;3.78;1.10;;;19.80;57.10;;;;;;4970067;28;20291;-71
2022/09/02 09:37:36;;;;;;;4.82;1.30;;;19.90;56.40;;;;;;4970265;28;20051;-71
2022/09/02 09:40:29;;;;;;;3.85;1.10;;;20.00;55.90;;;;;;4963977;28;20059;-71
2022/09/02 09:42:59;;;;;;;4.22;1.20;;;20.10;55.00;;;;;;4952485;28;20136;-71
2022/09/02 09:45:31;;;;;;;3.00;1.00;;;20.20;55.20;;;;;;4953631;28;20043;-71
2022/09/02 09:48:28;;;;;;;3.45;1.30;;;20.30;55.20;;;;;;4955118;28;20722;-71
2022/09/02 09:51:14;;;;;;;2.60;1.05;;;20.30;55.10;;;;;;4972250;28;20055;-72
2022/09/02 09:53:41;;;;;;;3.55;1.25;;;20.50;54.70;;;;;;4953183;28;20048;-71
2022/09/02 09:56:28;;;;;;;4.50;1.10;;;20.50;54.60;;;;;;4938781;28;20071;-72
2022/09/02 09:58:55;;;;;;;3.73;1.13;;;20.60;54.40;;;;;;4972626;28;20139;-71
2022/09/02 10:01:25;;;;;;;5.60;1.02;;;20.70;53.90;;;;;;4972964;28;20311;-71
2022/09/02 10:03:55;;;;;;;5.10;1.10;;;20.80;53.10;;;;;;4955579;28;20102;-72
2022/09/02 10:06:35;;;;;;;10.48;1.70;;;20.90;52.90;;;;;;4973618;28;20502;-72
2022/09/02 10:09:04;;;;;;;4.28;1.00;;;21.00;52.10;;;;;;4972298;28;20057;-71
2022/09/02 10:11:34;;;;;;;4.40;1.20;;;21.10;52.10;;;;;;4970853;28;20059;-71
2022/09/02 10:14:03;;;;;;;3.47;1.05;;;21.10;51.90;;;;;;4973197;28;20285;-72
2022/09/02 10:16:41;;;;;;;3.47;1.10;;;21.30;51.40;;;;;;4955395;28;20049;-71
2022/09/02 10:19:17;;;;;;;3.72;1.13;;;21.40;51.20;;;;;;4966413;28;20126;-71
2022/09/02 10:22:07;;;;;;;19.33;2.80;;;21.40;51.00;;;;;;4973426;28;20464;-71
2022/09/02 10:24:59;;;;;;;7.73;1.20;;;21.50;50.10;;;;;;4972822;28;20142;-71
2022/09/02 10:27:37;;;;;;;4.82;0.90;;;21.70;50.00;;;;;;4971426;28;20279;-71
2022/09/02 10:30:07;;;;;;;3.42;0.90;;;21.70;49.00;;;;;;4970557;28;20055;-71
2022/09/02 10:32:50;;;;;;;12.90;1.92;;;21.80;48.60;;;;;;4955155;28;20047;-72
2022/09/02 10:35:25;;;;;;;3.45;0.90;;;21.90;48.50;;;;;;4962179;28;20576;-71
2022/09/02 10:38:06;;;;;;;2.80;0.90;;;22.00;48.70;;;;;;4969483;28;20058;-73
2022/09/02 10:40:40;;;;;;;3.90;1.00;;;22.10;48.60;;;;;;4972851;28;20256;-72
2022/09/02 10:43:09;;;;;;;3.88;0.80;;;22.20;48.10;;;;;;4973385;28;20055;-73
2022/09/02 10:45:42;;;;;;;70.35;7.35;;;22.30;48.00;;;;;;4956152;28;20514;-72
2022/09/02 10:48:37;;;;;;;4.35;1.00;;;22.40;47.80;;;;;;4973235;28;20055;-72
2022/09/02 10:51:10;;;;;;;3.90;1.00;;;22.50;47.10;;;;;;4955388;28;20490;-73
2022/09/02 10:54:00;;;;;;;6.35;1.10;;;22.50;46.60;;;;;;4955157;28;20252;-72
2022/09/02 10:56:33;;;;;;;4.97;0.90;;;22.60;46.30;;;;;;4955050;28;20047;-74
2022/09/02 10:59:36;;;;;;;3.60;0.82;;;22.70;46.10;;;;;;4974124;28;20097;-73
2022/09/02 11:02:11;;;;;;;5.00;1.13;;;22.70;46.20;;;;;;4935313;28;20057;-73
2022/09/02 11:04:45;;;;;;;14.43;1.97;;;22.80;45.60;;;;;;4932177;29;20131;-73
2022/09/02 11:07:16;;;;;;;7.35;1.33;;;22.90;45.50;;;;;;4933803;29;20335;-73
2022/09/02 11:09:50;;;;;;;3.28;0.70;;;22.90;45.30;;;;;;4933298;28;20157;-73
2022/09/02 11:12:21;;;;;;;3.78;1.05;;;23.00;45.30;;;;;;4950518;28;20171;-73
2022/09/02 11:14:59;;;;;;;3.22;0.85;;;23.10;45.30;;;;;;4947205;28;20056;-73
2022/09/02 11:17:30;;;;;;;4.37;0.90;;;23.20;45.50;;;;;;4950627;28;20536;-73
2022/09/02 11:20:03;;;;;;;5.50;1.20;;;23.20;45.60;;;;;;4950957;28;20290;-74
2022/09/02 11:22:38;;;;;;;6.65;1.10;;;23.30;45.30;;;;;;4946164;28;20084;-72
2022/09/02 11:25:12;;;;;;;3.33;0.90;;;23.40;45.40;;;;;;4934450;29;20135;-73
2022/09/02 11:27:44;;;;;;;5.60;1.40;;;23.50;44.30;;;;;;4934023;29;20058;-73
2022/09/02 11:30:15;;;;;;;4.33;1.00;;;23.60;44.10;;;;;;4933880;28;20056;-73
2022/09/02 11:32:47;;;;;;;3.33;1.00;;;23.60;43.70;;;;;;4965537;28;20276;-73
2022/09/02 11:35:19;;;;;;;3.85;1.10;;;23.70;44.00;;;;;;4953117;28;20058;-73
2022/09/02 11:37:50;;;;;;;5.55;1.00;;;23.80;44.00;;;;;;4956564;28;20048;-73
2022/09/02 11:40:25;;;;;;;4.18;1.10;;;23.90;42.80;;;;;;4948419;28;20495;-72
2022/09/02 11:43:12;;;;;;;4.00;1.07;;;24.00;42.70;;;;;;4933642;29;20062;-72
2022/09/02 11:46:18;;;;;;;3.85;1.08;;;24.10;43.10;;;;;;4933895;29;20291;-72
2022/09/02 11:49:05;;;;;;;5.03;1.05;;;24.20;43.20;;;;;;4947846;28;20480;-73
2022/09/02 11:52:05;;;;;;;4.15;1.10;;;24.30;43.00;;;;;;4933057;29;20056;-72
2022/09/02 11:54:37;;;;;;;3.15;1.00;;;24.40;42.60;;;;;;4932300;28;20108;-72
2022/09/02 11:57:10;;;;;;;4.93;1.27;;;24.50;42.80;;;;;;4932031;29;20143;-72
2022/09/02 12:00:03;;;;;;;2.58;1.20;;;24.50;42.30;;;;;;4930166;29;20356;-72
2022/09/02 12:02:45;;;;;;;4.53;1.40;;;24.60;42.80;;;;;;4914946;29;20052;-72
2022/09/02 12:05:46;;;;;;;3.35;1.10;;;24.70;42.50;;;;;;4946148;28;20064;-72
2022/09/02 12:08:35;;;;;;;3.92;1.20;;;24.80;42.90;;;;;;4933017;29;20060;-72
2022/09/02 12:11:04;;;;;;;3.90;1.20;;;24.90;42.00;;;;;;4932838;29;20727;-72
2022/09/02 12:13:37;;;;;;;7.05;1.42;;;25.00;41.90;;;;;;4931774;29;20279;-72
2022/09/02 12:16:36;;;;;;;14.27;1.88;;;25.00;41.40;;;;;;4931409;29;20485;-72
2022/09/02 12:19:27;;;;;;;6.38;1.10;;;25.00;41.50;;;;;;4948044;28;20912;-73
2022/09/02 12:22:27;;;;;;;3.95;1.10;;;25.20;41.70;;;;;;4948058;28;20057;-72
2022/09/02 12:24:55;;;;;;;4.80;1.20;;;25.20;40.80;;;;;;4948882;28;20048;-72
2022/09/02 12:27:28;;;;;;;2.85;1.23;;;25.30;40.80;;;;;;4942733;28;20244;-73
2022/09/02 12:29:57;;;;;;;3.10;1.40;;;25.30;40.60;;;;;;4938898;28;20462;-73
2022/09/02 12:33:03;;;;;;;4.18;1.65;;;25.40;40.50;;;;;;4941698;28;20567;-73
2022/09/02 12:35:52;;;;;;;7.13;1.67;;;25.50;40.60;;;;;;4933717;28;20059;-73
2022/09/02 12:38:38;;;;;;;3.77;1.60;;;25.50;40.30;;;;;;4938379;28;20810;-73
2022/09/02 12:41:20;;;;;;;4.78;1.35;;;25.60;40.10;;;;;;4947887;28;20347;-73
2022/09/02 12:44:03;;;;;;;2.80;1.30;;;25.70;40.20;;;;;;4938083;28;20052;-74
2022/09/02 12:46:46;;;;;;;4.53;1.50;;;25.80;40.00;;;;;;4899380;29;20086;-74
2022/09/02 12:49:27;;;;;;;4.03;1.50;;;25.80;39.80;;;;;;4946731;28;20063;-73
2022/09/02 12:51:56;;;;;;;3.37;1.57;;;25.90;40.10;;;;;;4933467;28;20060;-72
2022/09/02 12:54:30;;;;;;;4.60;1.80;;;26.00;39.90;;;;;;4920285;28;20270;-72
2022/09/02 12:56:57;;;;;;;6.95;1.65;;;26.00;39.70;;;;;;4918293;29;20557;-72
2022/09/02 12:59:29;;;;;;;3.78;1.38;;;26.00;39.80;;;;;;4949189;28;20087;-72
2022/09/02 13:02:19;;;;;;;4.65;1.50;;;26.10;39.50;;;;;;4930794;29;20052;-73
2022/09/02 13:04:57;;;;;;;4.90;1.37;;;26.20;39.60;;;;;;4946530;28;20091;-73
2022/09/02 13:08:01;;;;;;;4.07;1.60;;;26.20;39.50;;;;;;4947020;28;20780;-72
2022/09/02 13:10:53;;;;;;;3.08;1.40;;;26.20;40.20;;;;;;4933766;28;20115;-72
2022/09/02 13:13:46;;;;;;;3.45;1.40;;;26.40;39.80;;;;;;4927406;28;20132;-73